createdAt,value
2023-01-17T00:02:05.786Z,97.10
2023-01-17T00:04:52.415Z,98.81
2023-01-17T00:07:39.151Z,98.46
2023-01-17T00:10:16.991Z,98.29
2023-01-17T00:13:01.092Z,98.77
2023-01-17T00:15:30.726Z,98.21
2023-01-17T00:17:58.231Z,98.20
2023-01-17T00:20:46.255Z,98.11
2023-01-17T00:23:38.046Z,98.07
2023-01-17T00:26:19.091Z,97.71
2023-01-17T00:28:47.789Z,96.47
2023-01-17T00:31:16.211Z,96.04
2023-01-17T00:33:43.345Z,96.34
2023-01-17T00:36:11.271Z,96.95
2023-01-17T00:38:39.439Z,96.78
2023-01-17T00:41:09.193Z,96.87
2023-01-17T00:43:55.051Z,97.25
2023-01-17T00:46:41.021Z,96.80
2023-01-17T00:49:27.789Z,96.95
2023-01-17T00:52:13.703Z,96.40
2023-01-17T00:54:59.606Z,96.47
2023-01-17T00:57:45.263Z,96.24
2023-01-17T01:00:31.759Z,96.40
2023-01-17T01:03:17.289Z,96.53
2023-01-17T01:06:03.339Z,98.21
2023-01-17T01:08:49.274Z,95.45
2023-01-17T01:11:38.061Z,95.23
2023-01-17T01:14:26.005Z,94.93
2023-01-17T01:17:11.779Z,96.20
2023-01-17T01:19:57.271Z,95.89
2023-01-17T01:22:43.073Z,95.87
2023-01-17T01:25:28.720Z,96.16
2023-01-17T01:28:29.326Z,95.34
2023-01-17T01:31:15.026Z,96.16
2023-01-17T01:33:42.458Z,97.74
2023-01-17T01:36:09.995Z,95.00
2023-01-17T01:38:37.124Z,95.16
2023-01-17T01:41:05.221Z,95.83
2023-01-17T01:43:48.531Z,95.41
2023-01-17T01:46:23.751Z,96.12
2023-01-17T01:49:05.900Z,95.91
2023-01-17T01:51:36.728Z,96.33
2023-01-17T01:54:25.645Z,95.98
2023-01-17T01:56:53.412Z,96.43
2023-01-17T01:59:21.249Z,96.60
2023-01-17T02:01:50.616Z,96.47
2023-01-17T02:04:19.305Z,96.30
2023-01-17T02:06:49.368Z,96.94
2023-01-17T02:09:18.120Z,97.16
2023-01-17T02:11:47.144Z,97.05
2023-01-17T02:14:22.226Z,97.60
2023-01-17T02:17:06.593Z,97.71
2023-01-17T02:19:52.213Z,97.67
2023-01-17T02:22:44.414Z,98.70
2023-01-17T02:25:43.627Z,98.15
2023-01-17T02:28:29.525Z,96.63
2023-01-17T02:31:02.905Z,97.04
2023-01-17T02:33:41.811Z,96.51
2023-01-17T02:36:17.963Z,96.70
2023-01-17T02:38:59.733Z,96.64
2023-01-17T02:41:34.289Z,96.51
2023-01-17T02:44:02.458Z,96.48
2023-01-17T02:46:29.609Z,96.82
2023-01-17T02:48:57.854Z,97.10
2023-01-17T02:51:58.635Z,96.64
2023-01-17T02:54:39.599Z,97.21
2023-01-17T02:57:06.907Z,97.59
2023-01-17T02:59:50.524Z,96.96
2023-01-17T03:02:23.855Z,97.60
2023-01-17T03:05:14.503Z,97.81
2023-01-17T03:07:44.335Z,98.22
2023-01-17T03:10:12.861Z,98.64
2023-01-17T03:12:40.644Z,98.16
2023-01-17T03:15:12.995Z,98.94
2023-01-17T03:17:46.972Z,99.20
2023-01-17T03:20:14.474Z,98.55
2023-01-17T03:22:41.625Z,99.31
2023-01-17T03:25:09.154Z,99.07
2023-01-17T03:27:36.560Z,98.64
2023-01-17T03:30:04.619Z,99.30
2023-01-17T03:32:31.675Z,100.00
2023-01-17T03:34:59.046Z,99.73
2023-01-17T03:37:26.116Z,99.47
2023-01-17T03:39:53.322Z,99.29
2023-01-17T03:42:20.664Z,99.38
2023-01-17T03:44:47.837Z,99.37
2023-01-17T03:47:14.932Z,99.78
2023-01-17T03:49:42.288Z,99.54
2023-01-17T03:52:09.406Z,99.43
2023-01-17T03:54:36.559Z,98.39
2023-01-17T03:57:04.052Z,97.97
2023-01-17T03:59:33.266Z,98.19
2023-01-17T04:02:01.188Z,98.08
2023-01-17T04:04:28.746Z,97.61
2023-01-17T04:06:55.891Z,97.92
2023-01-17T04:09:23.008Z,97.81
2023-01-17T04:11:51.018Z,97.87
2023-01-17T04:14:18.166Z,97.92
2023-01-17T04:16:45.311Z,98.36
2023-01-17T04:19:13.305Z,98.18
2023-01-17T04:21:40.415Z,97.87
2023-01-17T04:24:07.782Z,97.97
2023-01-17T04:26:35.215Z,97.27
2023-01-17T04:29:02.413Z,97.18
2023-01-17T04:31:29.576Z,97.19
2023-01-17T04:33:57.090Z,96.58
2023-01-17T04:36:24.241Z,96.48
2023-01-17T04:38:51.415Z,95.74
2023-01-17T04:41:18.897Z,95.96
2023-01-17T04:43:46.008Z,96.48
2023-01-17T04:46:13.283Z,96.90
2023-01-17T04:48:40.667Z,97.50
2023-01-17T04:51:07.755Z,97.28
2023-01-17T04:53:34.911Z,96.99
2023-01-17T04:56:03.061Z,96.82
2023-01-17T04:58:30.521Z,96.94
2023-01-17T05:01:02.308Z,97.19
2023-01-17T05:03:29.871Z,97.10
2023-01-17T05:05:56.945Z,97.23
2023-01-17T05:08:24.105Z,94.39
2023-01-17T05:10:51.638Z,91.54
2023-01-17T05:13:19.026Z,90.23
2023-01-17T05:15:46.554Z,91.26
2023-01-17T05:18:15.402Z,87.76
2023-01-17T05:20:42.878Z,87.94
2023-01-17T05:23:10.680Z,85.63
2023-01-17T05:25:38.166Z,85.76
2023-01-17T05:28:05.582Z,85.91
2023-01-17T05:30:33.204Z,87.65
2023-01-17T05:33:00.689Z,87.51
2023-01-17T05:35:30.073Z,85.41
2023-01-17T05:37:57.225Z,82.28
2023-01-17T05:40:30.771Z,83.14
2023-01-17T05:42:59.650Z,83.69
2023-01-17T05:45:28.943Z,82.01
2023-01-17T05:47:56.862Z,83.12
2023-01-17T05:50:26.500Z,82.91
2023-01-17T05:53:03.847Z,82.67
2023-01-17T05:55:31.712Z,84.39
2023-01-17T05:57:59.684Z,84.43
2023-01-17T06:00:27.096Z,83.09
2023-01-17T06:02:55.894Z,86.89
2023-01-17T06:05:23.875Z,87.73
2023-01-17T06:07:51.077Z,89.64
2023-01-17T06:10:20.031Z,91.50
2023-01-17T06:12:47.634Z,89.23
2023-01-17T06:15:16.022Z,89.15
2023-01-17T06:17:43.431Z,88.99
2023-01-17T06:20:11.749Z,90.97
2023-01-17T06:22:38.883Z,92.98
2023-01-17T06:25:07.014Z,90.21
2023-01-17T06:27:34.219Z,91.23
2023-01-17T06:30:01.315Z,93.30
2023-01-17T06:32:28.907Z,91.34
2023-01-17T06:34:56.068Z,90.56
2023-01-17T06:37:23.166Z,90.94
2023-01-17T06:39:50.539Z,89.44
2023-01-17T06:42:17.609Z,90.93
2023-01-17T06:44:44.682Z,90.08
2023-01-17T06:47:12.045Z,90.66
2023-01-17T06:49:39.107Z,90.33
2023-01-17T06:52:06.199Z,90.69
2023-01-17T06:54:33.545Z,89.24
2023-01-17T06:57:00.764Z,90.58
2023-01-17T06:59:27.962Z,89.22
2023-01-17T07:01:55.339Z,92.24
2023-01-17T07:04:22.499Z,89.09
2023-01-17T07:06:49.650Z,88.27
2023-01-17T07:09:17.232Z,89.43
2023-01-17T07:11:45.406Z,89.53
2023-01-17T07:14:13.744Z,91.12
2023-01-17T07:16:45.312Z,93.72
2023-01-17T07:19:12.807Z,90.56
2023-01-17T07:21:40.430Z,88.74
2023-01-17T07:24:09.094Z,86.85
2023-01-17T07:26:38.013Z,87.38
2023-01-17T07:29:05.379Z,87.19
2023-01-17T07:31:38.149Z,88.15
2023-01-17T07:34:05.361Z,89.79
2023-01-17T07:36:33.403Z,89.71
2023-01-17T07:39:00.492Z,93.10
2023-01-17T07:41:27.584Z,87.96
2023-01-17T07:43:56.399Z,90.20
2023-01-17T07:46:23.723Z,92.24
2023-01-17T07:48:50.920Z,94.71
2023-01-17T07:51:18.353Z,88.68
2023-01-17T07:53:45.564Z,89.25
2023-01-17T07:56:12.704Z,89.58
2023-01-17T07:58:40.147Z,89.37
2023-01-17T08:01:10.088Z,88.74
2023-01-17T08:03:40.184Z,88.26
2023-01-17T08:06:16.455Z,88.20
2023-01-17T08:08:43.981Z,88.57
2023-01-17T08:11:11.145Z,87.64
2023-01-17T08:13:38.326Z,88.73
2023-01-17T08:16:06.352Z,88.43
2023-01-17T08:18:33.448Z,87.17
2023-01-17T08:21:00.600Z,89.36
2023-01-17T08:23:28.035Z,88.51
2023-01-17T08:26:00.018Z,88.02
2023-01-17T08:28:27.510Z,88.83
2023-01-17T08:30:54.644Z,93.55
2023-01-17T08:33:21.784Z,92.38
2023-01-17T08:35:55.504Z,88.27
2023-01-17T08:38:23.798Z,86.89
2023-01-17T08:40:51.165Z,85.83
2023-01-17T08:43:18.292Z,85.31
2023-01-17T08:45:47.075Z,86.62
2023-01-17T08:48:15.427Z,84.07
2023-01-17T08:50:42.571Z,85.53
2023-01-17T08:53:09.721Z,87.41
2023-01-17T08:55:40.905Z,86.14
2023-01-17T08:58:08.335Z,85.26
2023-01-17T09:00:35.996Z,87.25
2023-01-17T09:03:03.570Z,85.22
2023-01-17T09:05:30.754Z,83.46
2023-01-17T09:07:57.921Z,83.74
2023-01-17T09:10:25.458Z,81.75
2023-01-17T09:12:52.827Z,81.34
2023-01-17T09:15:20.287Z,82.74
2023-01-17T09:17:48.046Z,79.11
2023-01-17T09:20:15.251Z,79.29
2023-01-17T09:22:42.370Z,83.70
2023-01-17T09:25:09.985Z,79.32
2023-01-17T09:27:37.272Z,78.08
2023-01-17T09:30:04.948Z,74.64
2023-01-17T09:32:32.402Z,75.56
2023-01-17T09:35:01.013Z,76.31
2023-01-17T09:37:28.397Z,77.77
2023-01-17T09:39:55.903Z,75.75
2023-01-17T09:42:41.133Z,73.62
2023-01-17T09:45:16.867Z,77.20
2023-01-17T09:47:46.488Z,76.37
2023-01-17T09:50:36.010Z,79.38
2023-01-17T09:53:05.443Z,79.08
2023-01-17T09:55:42.965Z,77.00
2023-01-17T09:58:13.086Z,77.56
2023-01-17T10:01:19.845Z,74.42
2023-01-17T10:03:59.306Z,88.93
2023-01-17T10:06:42.468Z,79.71
2023-01-17T10:09:34.044Z,74.31
2023-01-17T10:12:07.214Z,78.49
2023-01-17T10:14:52.572Z,71.57
2023-01-17T10:17:36.419Z,80.86
2023-01-17T10:20:26.593Z,72.36
2023-01-17T10:23:13.003Z,75.83
2023-01-17T10:25:49.682Z,71.65
2023-01-17T10:28:18.049Z,78.21
2023-01-17T10:30:50.742Z,73.25
2023-01-17T10:33:22.460Z,71.37
2023-01-17T10:35:59.093Z,71.53
2023-01-17T10:38:35.082Z,73.91
2023-01-17T10:41:08.112Z,73.00
2023-01-17T10:43:44.505Z,79.36
2023-01-17T10:46:19.345Z,76.28
2023-01-17T10:48:47.822Z,76.57
2023-01-17T10:51:32.532Z,71.67
2023-01-17T10:54:28.332Z,71.95
2023-01-17T10:56:55.847Z,70.20
2023-01-17T10:59:31.953Z,72.04
2023-01-17T11:02:00.482Z,71.12
2023-01-17T11:04:38.839Z,71.84
2023-01-17T11:07:19.495Z,72.62
2023-01-17T11:09:57.570Z,77.81
2023-01-17T11:12:30.967Z,69.72
2023-01-17T11:15:05.797Z,70.39
2023-01-17T11:17:35.048Z,72.69
2023-01-17T11:20:40.733Z,72.72
2023-01-17T11:23:14.075Z,76.63
2023-01-17T11:25:49.410Z,71.51
2023-01-17T11:28:22.956Z,69.11
2023-01-17T11:31:16.618Z,72.84
2023-01-17T11:33:55.854Z,67.29
2023-01-17T11:36:24.675Z,69.99
2023-01-17T11:38:56.778Z,66.35
2023-01-17T11:41:25.026Z,64.71
2023-01-17T11:43:57.401Z,67.05
2023-01-17T11:46:25.258Z,66.96
2023-01-17T11:48:56.449Z,67.37
2023-01-17T11:51:29.568Z,69.70
2023-01-17T11:54:08.778Z,71.42
2023-01-17T11:56:36.916Z,79.37
2023-01-17T11:59:31.630Z,72.00
2023-01-17T12:02:15.685Z,74.56
2023-01-17T12:04:47.653Z,65.05
2023-01-17T12:07:33.328Z,67.58
2023-01-17T12:10:11.209Z,63.97
2023-01-17T12:13:09.998Z,67.51
2023-01-17T12:16:01.820Z,65.91
2023-01-17T12:19:04.120Z,66.51
2023-01-17T12:21:50.039Z,67.18
2023-01-17T12:24:45.513Z,65.82
2023-01-17T12:27:31.637Z,70.41
2023-01-17T12:30:24.974Z,63.69
2023-01-17T12:33:30.557Z,64.15
2023-01-17T12:36:38.179Z,62.27
2023-01-17T12:39:10.135Z,63.08
2023-01-17T12:42:01.627Z,67.63
2023-01-17T12:45:32.289Z,63.84
2023-01-17T12:48:12.323Z,65.10
2023-01-17T12:51:08.989Z,69.18
2023-01-17T12:53:48.560Z,65.88
2023-01-17T12:56:22.641Z,66.08
2023-01-17T12:58:56.277Z,64.57
2023-01-17T13:01:31.835Z,65.66
2023-01-17T13:04:28.776Z,66.44
2023-01-17T13:06:59.163Z,66.14
2023-01-17T13:09:33.215Z,70.08
2023-01-17T13:12:06.225Z,67.86
2023-01-17T13:14:33.435Z,66.34
2023-01-17T13:17:02.113Z,67.83
2023-01-17T13:19:38.091Z,69.03
2023-01-17T13:22:08.392Z,68.62
2023-01-17T13:25:12.886Z,69.42
2023-01-17T13:28:01.771Z,70.38
2023-01-17T13:30:50.875Z,70.71
2023-01-17T13:33:39.729Z,70.85
2023-01-17T13:36:30.016Z,71.58
2023-01-17T13:39:16.053Z,70.13
2023-01-17T13:41:47.702Z,69.63
2023-01-17T13:44:21.587Z,71.42
2023-01-17T13:46:56.715Z,69.81
2023-01-17T13:49:36.185Z,70.26
2023-01-17T13:52:09.577Z,72.84
2023-01-17T13:54:49.049Z,75.81
2023-01-17T13:57:25.735Z,71.21
2023-01-17T13:59:58.108Z,71.17
2023-01-17T14:02:38.528Z,70.49
2023-01-17T14:05:15.972Z,74.15
2023-01-17T14:07:49.260Z,73.41
2023-01-17T14:10:24.395Z,72.59
2023-01-17T14:12:51.549Z,74.82
2023-01-17T14:15:21.049Z,71.94
2023-01-17T14:17:58.480Z,71.76
2023-01-17T14:20:25.895Z,73.52
2023-01-17T14:22:56.158Z,73.80
2023-01-17T14:25:28.334Z,72.27
2023-01-17T14:27:59.493Z,77.60
2023-01-17T14:30:27.055Z,73.64
2023-01-17T14:33:04.688Z,76.03
2023-01-17T14:35:35.137Z,73.56
2023-01-17T14:38:05.379Z,72.62
2023-01-17T14:40:35.826Z,80.48
2023-01-17T14:43:02.931Z,77.45
2023-01-17T14:45:32.361Z,77.43
2023-01-17T14:48:01.994Z,77.01
2023-01-17T14:50:37.333Z,76.23
2023-01-17T14:53:08.383Z,76.44
2023-01-17T14:55:35.725Z,74.48
2023-01-17T14:58:03.304Z,74.47
2023-01-17T15:00:32.918Z,74.96
2023-01-17T15:03:01.439Z,73.19
2023-01-17T15:05:29.737Z,75.29
2023-01-17T15:07:58.336Z,73.37
2023-01-17T15:10:28.560Z,72.85
2023-01-17T15:12:56.824Z,72.50
2023-01-17T15:15:39.697Z,70.86
2023-01-17T15:18:27.140Z,70.77
2023-01-17T15:21:03.124Z,70.71
2023-01-17T15:23:37.541Z,70.00
2023-01-17T15:26:07.550Z,71.42
2023-01-17T15:28:35.314Z,74.04
2023-01-17T15:31:15.829Z,73.62
2023-01-17T15:33:46.850Z,74.45
2023-01-17T15:36:34.219Z,73.92
2023-01-17T15:39:06.036Z,74.54
2023-01-17T15:41:37.918Z,72.85
2023-01-17T15:44:05.691Z,72.05
2023-01-17T15:46:42.053Z,72.02
2023-01-17T15:49:21.369Z,75.29
2023-01-17T15:51:52.550Z,73.92
2023-01-17T15:54:28.679Z,73.71
2023-01-17T15:57:37.330Z,71.75
2023-01-17T16:00:20.467Z,72.35
2023-01-17T16:02:55.094Z,71.65
2023-01-17T16:05:22.912Z,72.23
2023-01-17T16:07:55.630Z,71.66
2023-01-17T16:10:25.136Z,71.35
2023-01-17T16:12:55.093Z,73.77
2023-01-17T16:15:23.621Z,73.08
2023-01-17T16:17:53.213Z,73.38
2023-01-17T16:20:35.906Z,73.29
2023-01-17T16:23:03.328Z,80.40
2023-01-17T16:25:32.751Z,75.52
2023-01-17T16:27:59.998Z,73.74
2023-01-17T16:30:28.008Z,73.70
2023-01-17T16:32:56.904Z,72.10
2023-01-17T16:35:34.329Z,74.10
2023-01-17T16:38:07.267Z,76.04
2023-01-17T16:40:43.901Z,77.76
2023-01-17T16:43:18.427Z,78.97
2023-01-17T16:45:47.926Z,79.76
2023-01-17T16:48:17.669Z,80.76
2023-01-17T16:50:50.488Z,82.01
2023-01-17T16:53:24.287Z,83.86
2023-01-17T16:55:57.191Z,85.86
2023-01-17T16:58:24.772Z,83.73
2023-01-17T17:00:52.322Z,87.17
2023-01-17T17:03:20.851Z,86.77
2023-01-17T17:05:59.986Z,86.80
2023-01-17T17:08:29.296Z,86.18
2023-01-17T17:11:07.982Z,86.83
2023-01-17T17:13:37.810Z,87.92
2023-01-17T17:16:19.127Z,90.60
2023-01-17T17:18:47.661Z,87.72
2023-01-17T17:21:15.161Z,87.00
2023-01-17T17:23:42.389Z,90.22
2023-01-17T17:26:09.825Z,87.69
2023-01-17T17:28:37.576Z,89.67
2023-01-17T17:31:11.010Z,88.02
2023-01-17T17:33:38.770Z,87.66
2023-01-17T17:36:07.717Z,87.34
2023-01-17T17:38:37.053Z,87.53
2023-01-17T17:41:09.740Z,89.94
2023-01-17T17:43:38.631Z,90.26
2023-01-17T17:46:06.504Z,89.99
2023-01-17T17:48:33.876Z,91.22
2023-01-17T17:51:01.586Z,89.09
2023-01-17T17:53:29.060Z,87.36
2023-01-17T17:55:56.348Z,89.08
2023-01-17T17:58:23.633Z,89.56
2023-01-17T18:00:51.141Z,92.82
2023-01-17T18:03:18.946Z,93.51
2023-01-17T18:05:46.840Z,94.59
2023-01-17T18:08:14.087Z,91.26
2023-01-17T18:10:42.531Z,89.88
2023-01-17T18:13:09.692Z,91.96
2023-01-17T18:15:36.830Z,95.79
2023-01-17T18:18:04.445Z,97.29
2023-01-17T18:20:31.947Z,97.82
2023-01-17T18:22:59.124Z,100.00
2023-01-17T18:25:26.555Z,100.00
2023-01-17T18:27:53.869Z,100.00
2023-01-17T18:30:21.269Z,100.00
2023-01-17T18:32:49.888Z,100.00
2023-01-17T18:35:17.212Z,100.00
2023-01-17T18:37:44.518Z,100.00
2023-01-17T18:40:12.152Z,100.00
2023-01-17T18:42:39.278Z,100.00
2023-01-17T18:45:06.896Z,100.00
2023-01-17T18:47:34.348Z,100.00
2023-01-17T18:50:01.573Z,100.00
2023-01-17T18:52:28.699Z,100.00
2023-01-17T18:54:56.124Z,100.00
2023-01-17T18:57:24.136Z,100.00
2023-01-17T18:59:51.226Z,100.00
2023-01-17T19:02:19.927Z,100.00
2023-01-17T19:04:47.099Z,100.00
2023-01-17T19:07:14.234Z,100.00
2023-01-17T19:09:41.764Z,100.00
2023-01-17T19:12:08.860Z,100.00
2023-01-17T19:14:35.930Z,100.00
2023-01-17T19:17:03.341Z,100.00
2023-01-17T19:19:30.438Z,100.00
2023-01-17T19:21:57.495Z,100.00
2023-01-17T19:24:24.843Z,100.00
2023-01-17T19:26:53.272Z,100.00
2023-01-17T19:29:20.512Z,100.00
2023-01-17T19:31:47.911Z,100.00
2023-01-17T19:34:15.973Z,100.00
2023-01-17T19:36:43.105Z,100.00
2023-01-17T19:39:10.676Z,100.00
2023-01-17T19:41:42.170Z,100.00
2023-01-17T19:44:10.273Z,100.00
2023-01-17T19:46:37.949Z,100.00
2023-01-17T19:49:07.110Z,100.00
2023-01-17T19:51:34.572Z,100.00
2023-01-17T19:54:04.044Z,100.00
2023-01-17T19:56:31.504Z,100.00
2023-01-17T19:59:01.347Z,100.00
2023-01-17T20:01:31.548Z,100.00
2023-01-17T20:03:59.721Z,100.00
2023-01-17T20:06:29.499Z,100.00
2023-01-17T20:08:56.656Z,100.00
2023-01-17T20:11:25.557Z,100.00
2023-01-17T20:13:54.819Z,100.00
2023-01-17T20:16:23.213Z,100.00
2023-01-17T20:18:51.126Z,100.00
2023-01-17T20:21:20.667Z,100.00
2023-01-17T20:23:48.976Z,100.00
2023-01-17T20:26:19.430Z,100.00
2023-01-17T20:28:47.733Z,100.00
2023-01-17T20:31:17.527Z,100.00
2023-01-17T20:33:46.899Z,100.00
2023-01-17T20:36:16.636Z,100.00
2023-01-17T20:38:44.437Z,100.00
2023-01-17T20:41:17.671Z,100.00
2023-01-17T20:43:46.684Z,100.00
2023-01-17T20:46:14.703Z,100.00
2023-01-17T20:48:46.553Z,100.00
2023-01-17T20:51:14.659Z,100.00
2023-01-17T20:53:43.508Z,100.00
2023-01-17T20:56:12.372Z,100.00
2023-01-17T20:58:40.355Z,100.00
2023-01-17T21:01:09.550Z,100.00
2023-01-17T21:03:37.630Z,100.00
2023-01-17T21:06:07.168Z,100.00
2023-01-17T21:08:36.647Z,100.00
2023-01-17T21:11:04.613Z,100.00
2023-01-17T21:13:32.055Z,100.00
2023-01-17T21:15:59.619Z,100.00
2023-01-17T21:18:28.190Z,100.00
2023-01-17T21:20:55.551Z,100.00
2023-01-17T21:23:29.033Z,100.00
2023-01-17T21:25:57.639Z,100.00
2023-01-17T21:28:26.463Z,100.00
2023-01-17T21:30:54.107Z,100.00
2023-01-17T21:33:22.724Z,100.00
2023-01-17T21:35:50.199Z,100.00
2023-01-17T21:38:17.598Z,100.00
2023-01-17T21:40:45.434Z,100.00
2023-01-17T21:43:13.006Z,100.00
2023-01-17T21:45:41.501Z,100.00
2023-01-17T21:48:13.568Z,99.63
2023-01-17T21:50:40.675Z,99.79
2023-01-17T21:53:09.990Z,100.00
2023-01-17T21:55:56.249Z,99.22
2023-01-17T21:58:42.116Z,96.99
2023-01-17T22:01:22.391Z,98.62
2023-01-17T22:03:54.912Z,100.00
2023-01-17T22:06:25.779Z,98.47
2023-01-17T22:08:53.359Z,100.00
2023-01-17T22:11:22.635Z,98.01
2023-01-17T22:13:49.775Z,97.32
2023-01-17T22:16:21.395Z,97.64
2023-01-17T22:18:48.469Z,94.75
2023-01-17T22:21:23.640Z,93.32
2023-01-17T22:23:52.970Z,94.35
2023-01-17T22:26:21.878Z,93.50
2023-01-17T22:28:48.957Z,94.52
2023-01-17T22:31:20.819Z,96.81
2023-01-17T22:33:55.337Z,97.84
2023-01-17T22:36:23.305Z,98.21
2023-01-17T22:38:50.655Z,99.21
2023-01-17T22:41:23.269Z,100.00
2023-01-17T22:43:55.595Z,99.73
2023-01-17T22:46:26.614Z,99.63
2023-01-17T22:48:55.194Z,99.13
2023-01-17T22:51:24.003Z,99.39
2023-01-17T22:53:53.238Z,99.71
2023-01-17T22:56:31.272Z,98.57
2023-01-17T22:59:00.732Z,99.16
2023-01-17T23:01:30.209Z,98.07
2023-01-17T23:03:59.547Z,100.00
2023-01-17T23:06:30.425Z,100.00
2023-01-17T23:09:03.571Z,100.00
2023-01-17T23:11:39.680Z,100.00
2023-01-17T23:14:07.191Z,100.00
2023-01-17T23:16:52.980Z,100.00
2023-01-17T23:19:23.652Z,100.00
2023-01-17T23:22:17.349Z,100.00
2023-01-17T23:24:56.806Z,100.00
2023-01-17T23:27:42.081Z,100.00
2023-01-17T23:30:13.966Z,100.00
2023-01-17T23:32:45.871Z,100.00
2023-01-17T23:35:14.269Z,100.00
2023-01-17T23:38:00.057Z,100.00
2023-01-17T23:40:28.122Z,100.00
2023-01-17T23:43:13.650Z,100.00
2023-01-17T23:45:41.102Z,100.00
2023-01-17T23:48:12.043Z,100.00
2023-01-17T23:50:41.578Z,100.00
2023-01-17T23:53:09.617Z,100.00
2023-01-17T23:55:39.914Z,100.00
2023-01-17T23:58:10.434Z,100.00
